Aérodrome :
LOGIN :

S'inscrire | Disclaimer

   EN    FR    IT 

 










Légende :    VFR   VFR Marginal   IFR   IFR Intensif   IFR Très Intensif
Visi : 
Plafond : 
>= 8 km
>= 3000ft
5 à 8 km
1000 à 3000 ft
1500m à 5 km
500 à 1000 ft
800 à 1500m
200 à 500 ft
< 800m
< 200 ft
Symboles :   Orages  Brouillard  Fortes neiges  Fortes précipitations  Vent > 20 kt
SIGMETs :   Divers  Orages  Givrage  Turbulence  Onde Orograph.  Cendres Volcan.






- Altitude de l'aérodrome : 231 ft
- Code IATA : WTN


EGXW - RAF Waddington

DERNIER METAR :
  • 011120Z 30006KT 9999 FEW033 OVC050 08/00 Q1022 NOSIG RMK BLU BLU

METARs EXPIRÉS :
  • 011050Z 29006KT 9999 FEW022 OVC050 08/02 Q1022 NOSIG RMK BLU BLU
  • 011019Z 26005KT 9999 FEW018 OVC050 07/03 Q1023 NOSIG RMK BLU BLU
  • 010950Z 25006KT CAVOK 07/03 Q1023 NOSIG RMK BLU BLU
  • 010920Z 24006KT CAVOK 06/03 Q1023 NOSIG RMK BLU BLU
  • 010850Z 24006KT CAVOK 06/03 Q1024 NOSIG RMK BLU BLU

TAF TAF EGXW
Valide du 01 à 09h jusqu'au 02 à 03h UTC


010732Z 0109/0203 27008KT 9999 BKN045
PROB30
TEMPO 0109/0112 SCT018
PROB30
TEMPO 0123/0201 SCT018



MET'MAP, la Météo Aéronautique d'un coup d'oeil ! - Copyright ORBIFLY Décembre 2007 - Disclaimer

ORBIFLY MET'MAP TEAM :

Programmation & Développement : Alexandra Zaïnal
Sur une idée originale de : Baudouin d'Aumeries
Assistance à la programmation : Marc-Olivier Méhu
Soutien technique & logistique : Manuel Goepfert

Contact : metmap@orbifly.com




SOURCES & CREDITS :

   NOAA